sensor_id;sensor_type;location;lat;lon;timestamp;P1;durP1;ratioP1;P2;durP2;ratioP2
15110;SDS011;7656;51.954;7.998;2023-06-14T00:02:38;2.53;;;2.17;;
15110;SDS011;7656;51.954;7.998;2023-06-14T00:06:59;3.13;;;2.83;;
15110;SDS011;7656;51.954;7.998;2023-06-14T00:11:21;2.50;;;2.30;;
15110;SDS011;7656;51.954;7.998;2023-06-14T00:15:42;2.87;;;2.27;;
15110;SDS011;7656;51.954;7.998;2023-06-14T00:20:03;2.20;;;2.00;;
15110;SDS011;7656;51.954;7.998;2023-06-14T00:24:28;4.47;;;2.30;;
15110;SDS011;7656;51.954;7.998;2023-06-14T00:28:49;2.50;;;2.30;;
15110;SDS011;7656;51.954;7.998;2023-06-14T00:33:10;4.60;;;2.73;;
15110;SDS011;7656;51.954;7.998;2023-06-14T00:37:31;5.63;;;2.17;;
15110;SDS011;7656;51.954;7.998;2023-06-14T00:41:52;2.97;;;2.30;;
15110;SDS011;7656;51.954;7.998;2023-06-14T00:46:14;3.63;;;2.40;;
15110;SDS011;7656;51.954;7.998;2023-06-14T00:50:35;2.97;;;2.77;;
15110;SDS011;7656;51.954;7.998;2023-06-14T00:54:56;3.13;;;2.23;;
15110;SDS011;7656;51.954;7.998;2023-06-14T00:59:17;5.07;;;2.10;;
15110;SDS011;7656;51.954;7.998;2023-06-14T01:03:38;2.80;;;2.20;;
15110;SDS011;7656;51.954;7.998;2023-06-14T01:12:44;2.10;;;2.00;;
15110;SDS011;7656;51.954;7.998;2023-06-14T01:17:15;3.50;;;2.20;;
15110;SDS011;7656;51.954;7.998;2023-06-14T01:21:37;2.47;;;2.27;;
15110;SDS011;7656;51.954;7.998;2023-06-14T01:26:02;2.87;;;1.90;;
15110;SDS011;7656;51.954;7.998;2023-06-14T01:30:25;4.67;;;1.83;;
15110;SDS011;7656;51.954;7.998;2023-06-14T01:34:47;2.40;;;2.20;;
15110;SDS011;7656;51.954;7.998;2023-06-14T01:39:08;2.80;;;2.20;;
15110;SDS011;7656;51.954;7.998;2023-06-14T01:43:34;4.00;;;2.33;;
15110;SDS011;7656;51.954;7.998;2023-06-14T01:47:59;2.87;;;1.70;;
15110;SDS011;7656;51.954;7.998;2023-06-14T01:52:21;2.87;;;2.10;;
15110;SDS011;7656;51.954;7.998;2023-06-14T01:56:42;2.30;;;2.10;;
15110;SDS011;7656;51.954;7.998;2023-06-14T02:01:04;3.10;;;2.23;;
15110;SDS011;7656;51.954;7.998;2023-06-14T02:05:25;3.33;;;2.27;;
15110;SDS011;7656;51.954;7.998;2023-06-14T02:09:46;2.43;;;2.23;;
15110;SDS011;7656;51.954;7.998;2023-06-14T02:14:08;2.97;;;2.00;;
15110;SDS011;7656;51.954;7.998;2023-06-14T02:18:31;4.93;;;2.20;;
15110;SDS011;7656;51.954;7.998;2023-06-14T02:22:52;4.23;;;2.20;;
15110;SDS011;7656;51.954;7.998;2023-06-14T02:27:14;2.77;;;2.23;;
15110;SDS011;7656;51.954;7.998;2023-06-14T02:31:37;3.87;;;2.60;;
15110;SDS011;7656;51.954;7.998;2023-06-14T02:35:59;4.10;;;2.23;;
15110;SDS011;7656;51.954;7.998;2023-06-14T02:40:23;2.83;;;2.33;;
15110;SDS011;7656;51.954;7.998;2023-06-14T02:44:44;3.90;;;2.40;;
15110;SDS011;7656;51.954;7.998;2023-06-14T02:49:07;4.87;;;2.30;;
15110;SDS011;7656;51.954;7.998;2023-06-14T02:53:28;2.43;;;2.23;;
15110;SDS011;7656;51.954;7.998;2023-06-14T02:57:49;2.73;;;2.53;;
15110;SDS011;7656;51.954;7.998;2023-06-14T03:02:11;4.47;;;2.00;;
15110;SDS011;7656;51.954;7.998;2023-06-14T03:06:32;2.70;;;2.20;;
15110;SDS011;7656;51.954;7.998;2023-06-14T03:10:54;2.93;;;2.30;;
15110;SDS011;7656;51.954;7.998;2023-06-14T03:15:17;3.57;;;2.27;;
15110;SDS011;7656;51.954;7.998;2023-06-14T03:19:42;4.50;;;2.63;;
15110;SDS011;7656;51.954;7.998;2023-06-14T03:24:03;2.93;;;2.37;;
15110;SDS011;7656;51.954;7.998;2023-06-14T03:28:26;2.50;;;2.13;;
15110;SDS011;7656;51.954;7.998;2023-06-14T03:32:47;3.90;;;2.90;;
15110;SDS011;7656;51.954;7.998;2023-06-14T03:37:09;3.50;;;3.10;;
15110;SDS011;7656;51.954;7.998;2023-06-14T03:41:30;6.67;;;5.37;;
15110;SDS011;7656;51.954;7.998;2023-06-14T03:45:52;6.27;;;4.90;;
15110;SDS011;7656;51.954;7.998;2023-06-14T03:50:14;6.13;;;4.70;;
15110;SDS011;7656;51.954;7.998;2023-06-14T03:54:35;5.10;;;3.87;;
15110;SDS011;7656;51.954;7.998;2023-06-14T03:58:57;5.50;;;4.17;;
15110;SDS011;7656;51.954;7.998;2023-06-14T04:03:20;6.63;;;3.50;;
15110;SDS011;7656;51.954;7.998;2023-06-14T04:07:50;2.97;;;2.77;;
15110;SDS011;7656;51.954;7.998;2023-06-14T04:12:12;4.37;;;3.10;;
15110;SDS011;7656;51.954;7.998;2023-06-14T04:16:33;3.20;;;2.90;;
15110;SDS011;7656;51.954;7.998;2023-06-14T04:20:55;3.37;;;2.47;;
15110;SDS011;7656;51.954;7.998;2023-06-14T04:25:17;6.37;;;2.90;;
15110;SDS011;7656;51.954;7.998;2023-06-14T04:29:38;7.80;;;3.00;;
15110;SDS011;7656;51.954;7.998;2023-06-14T04:34:04;6.40;;;3.03;;
15110;SDS011;7656;51.954;7.998;2023-06-14T04:38:27;13.30;;;4.13;;
15110;SDS011;7656;51.954;7.998;2023-06-14T04:42:49;15.77;;;5.03;;
15110;SDS011;7656;51.954;7.998;2023-06-14T04:47:13;5.13;;;4.03;;
15110;SDS011;7656;51.954;7.998;2023-06-14T04:51:37;6.93;;;3.00;;
15110;SDS011;7656;51.954;7.998;2023-06-14T04:55:58;12.87;;;3.20;;
15110;SDS011;7656;51.954;7.998;2023-06-14T05:00:21;5.80;;;3.20;;
15110;SDS011;7656;51.954;7.998;2023-06-14T05:04:43;3.17;;;2.87;;
15110;SDS011;7656;51.954;7.998;2023-06-14T05:09:05;3.43;;;2.70;;
15110;SDS011;7656;51.954;7.998;2023-06-14T05:13:26;3.80;;;2.37;;
15110;SDS011;7656;51.954;7.998;2023-06-14T05:17:48;3.83;;;2.10;;
15110;SDS011;7656;51.954;7.998;2023-06-14T05:22:15;2.73;;;2.50;;
15110;SDS011;7656;51.954;7.998;2023-06-14T05:26:36;3.77;;;2.10;;
15110;SDS011;7656;51.954;7.998;2023-06-14T05:30:57;4.30;;;2.30;;
15110;SDS011;7656;51.954;7.998;2023-06-14T05:35:18;3.60;;;2.43;;
15110;SDS011;7656;51.954;7.998;2023-06-14T05:39:39;3.37;;;2.20;;
15110;SDS011;7656;51.954;7.998;2023-06-14T05:44:00;3.63;;;2.97;;
15110;SDS011;7656;51.954;7.998;2023-06-14T05:48:22;3.23;;;2.90;;
15110;SDS011;7656;51.954;7.998;2023-06-14T05:52:43;4.70;;;2.70;;
15110;SDS011;7656;51.954;7.998;2023-06-14T05:57:04;2.37;;;2.17;;
15110;SDS011;7656;51.954;7.998;2023-06-14T06:01:26;3.27;;;2.47;;
15110;SDS011;7656;51.954;7.998;2023-06-14T06:05:48;5.80;;;2.70;;
15110;SDS011;7656;51.954;7.998;2023-06-14T06:10:09;7.53;;;2.17;;
15110;SDS011;7656;51.954;7.998;2023-06-14T06:14:30;8.97;;;2.70;;
15110;SDS011;7656;51.954;7.998;2023-06-14T06:18:51;3.73;;;2.37;;
15110;SDS011;7656;51.954;7.998;2023-06-14T06:23:12;1.83;;;1.73;;
15110;SDS011;7656;51.954;7.998;2023-06-14T06:27:33;2.27;;;1.80;;
15110;SDS011;7656;51.954;7.998;2023-06-14T06:31:56;2.90;;;1.43;;
15110;SDS011;7656;51.954;7.998;2023-06-14T06:36:17;4.77;;;1.90;;
15110;SDS011;7656;51.954;7.998;2023-06-14T06:40:38;3.05;;;2.03;;
15110;SDS011;7656;51.954;7.998;2023-06-14T06:44:59;3.65;;;1.50;;
15110;SDS011;7656;51.954;7.998;2023-06-14T06:49:21;5.75;;;2.35;;
15110;SDS011;7656;51.954;7.998;2023-06-14T06:53:42;3.70;;;2.10;;
15110;SDS011;7656;51.954;7.998;2023-06-14T06:58:04;8.70;;;2.20;;
15110;SDS011;7656;51.954;7.998;2023-06-14T07:02:26;2.33;;;1.50;;
15110;SDS011;7656;51.954;7.998;2023-06-14T07:06:47;1.80;;;1.70;;
15110;SDS011;7656;51.954;7.998;2023-06-14T07:11:08;5.38;;;1.90;;
15110;SDS011;7656;51.954;7.998;2023-06-14T07:15:29;2.35;;;1.60;;
15110;SDS011;7656;51.954;7.998;2023-06-14T07:19:50;3.70;;;1.50;;
15110;SDS011;7656;51.954;7.998;2023-06-14T07:24:12;2.70;;;1.30;;
15110;SDS011;7656;51.954;7.998;2023-06-14T07:28:34;1.50;;;1.40;;
15110;SDS011;7656;51.954;7.998;2023-06-14T07:32:55;4.97;;;1.50;;
15110;SDS011;7656;51.954;7.998;2023-06-14T07:37:17;4.30;;;1.52;;
15110;SDS011;7656;51.954;7.998;2023-06-14T07:41:38;1.50;;;1.40;;
15110;SDS011;7656;51.954;7.998;2023-06-14T07:45:59;1.73;;;1.38;;
15110;SDS011;7656;51.954;7.998;2023-06-14T07:50:20;3.25;;;1.90;;
15110;SDS011;7656;51.954;7.998;2023-06-14T07:54:42;1.30;;;1.30;;
15110;SDS011;7656;51.954;7.998;2023-06-14T07:59:03;2.30;;;1.50;;
15110;SDS011;7656;51.954;7.998;2023-06-14T08:03:26;1.85;;;1.40;;
15110;SDS011;7656;51.954;7.998;2023-06-14T08:07:47;2.13;;;1.70;;
15110;SDS011;7656;51.954;7.998;2023-06-14T08:12:08;1.67;;;1.58;;
15110;SDS011;7656;51.954;7.998;2023-06-14T08:16:32;1.67;;;1.20;;
15110;SDS011;7656;51.954;7.998;2023-06-14T08:20:53;2.35;;;1.75;;
15110;SDS011;7656;51.954;7.998;2023-06-14T08:25:14;1.30;;;1.30;;
15110;SDS011;7656;51.954;7.998;2023-06-14T08:29:35;1.20;;;1.10;;
15110;SDS011;7656;51.954;7.998;2023-06-14T08:33:58;4.75;;;1.33;;
15110;SDS011;7656;51.954;7.998;2023-06-14T08:38:19;2.45;;;1.33;;
15110;SDS011;7656;51.954;7.998;2023-06-14T08:42:41;5.65;;;1.42;;
15110;SDS011;7656;51.954;7.998;2023-06-14T08:47:02;2.88;;;1.40;;
15110;SDS011;7656;51.954;7.998;2023-06-14T08:51:26;1.33;;;1.30;;
15110;SDS011;7656;51.954;7.998;2023-06-14T08:55:54;1.33;;;1.23;;
15110;SDS011;7656;51.954;7.998;2023-06-14T09:00:15;5.15;;;1.90;;
15110;SDS011;7656;51.954;7.998;2023-06-14T09:04:37;3.65;;;1.67;;
15110;SDS011;7656;51.954;7.998;2023-06-14T09:08:59;4.97;;;1.52;;
15110;SDS011;7656;51.954;7.998;2023-06-14T09:13:21;1.02;;;1.00;;
15110;SDS011;7656;51.954;7.998;2023-06-14T09:17:42;1.35;;;1.33;;
15110;SDS011;7656;51.954;7.998;2023-06-14T09:22:04;1.10;;;1.10;;
15110;SDS011;7656;51.954;7.998;2023-06-14T09:26:25;2.15;;;1.20;;
15110;SDS011;7656;51.954;7.998;2023-06-14T09:30:48;0.93;;;0.93;;
15110;SDS011;7656;51.954;7.998;2023-06-14T09:35:09;1.30;;;1.17;;
15110;SDS011;7656;51.954;7.998;2023-06-14T09:39:30;2.83;;;1.20;;
15110;SDS011;7656;51.954;7.998;2023-06-14T09:43:51;1.20;;;1.10;;
15110;SDS011;7656;51.954;7.998;2023-06-14T09:48:15;2.05;;;1.40;;
15110;SDS011;7656;51.954;7.998;2023-06-14T09:52:38;2.33;;;1.65;;
15110;SDS011;7656;51.954;7.998;2023-06-14T09:56:59;4.53;;;1.73;;
15110;SDS011;7656;51.954;7.998;2023-06-14T10:01:26;1.60;;;1.50;;
15110;SDS011;7656;51.954;7.998;2023-06-14T10:05:50;2.33;;;1.35;;
15110;SDS011;7656;51.954;7.998;2023-06-14T10:10:12;1.55;;;1.42;;
15110;SDS011;7656;51.954;7.998;2023-06-14T10:14:34;1.85;;;1.50;;
15110;SDS011;7656;51.954;7.998;2023-06-14T10:23:44;4.05;;;1.88;;
15110;SDS011;7656;51.954;7.998;2023-06-14T10:28:17;9.57;;;1.80;;
15110;SDS011;7656;51.954;7.998;2023-06-14T10:33:02;6.25;;;1.90;;
15110;SDS011;7656;51.954;7.998;2023-06-14T10:37:27;1.80;;;1.70;;
15110;SDS011;7656;51.954;7.998;2023-06-14T10:41:52;3.35;;;1.45;;
15110;SDS011;7656;51.954;7.998;2023-06-14T10:46:16;1.67;;;1.40;;
15110;SDS011;7656;51.954;7.998;2023-06-14T10:50:38;2.63;;;1.60;;
15110;SDS011;7656;51.954;7.998;2023-06-14T10:55:09;1.80;;;1.70;;
15110;SDS011;7656;51.954;7.998;2023-06-14T10:59:35;2.38;;;1.73;;
15110;SDS011;7656;51.954;7.998;2023-06-14T11:04:00;1.70;;;1.60;;
15110;SDS011;7656;51.954;7.998;2023-06-14T11:13:45;3.35;;;1.58;;
15110;SDS011;7656;51.954;7.998;2023-06-14T11:18:07;2.85;;;1.92;;
15110;SDS011;7656;51.954;7.998;2023-06-14T11:22:38;2.38;;;2.28;;
15110;SDS011;7656;51.954;7.998;2023-06-14T11:27:01;1.77;;;1.67;;
15110;SDS011;7656;51.954;7.998;2023-06-14T11:31:22;2.80;;;1.63;;
15110;SDS011;7656;51.954;7.998;2023-06-14T11:35:44;1.67;;;1.52;;
15110;SDS011;7656;51.954;7.998;2023-06-14T11:40:06;1.70;;;1.60;;
15110;SDS011;7656;51.954;7.998;2023-06-14T11:44:31;2.30;;;1.90;;
15110;SDS011;7656;51.954;7.998;2023-06-14T11:48:52;2.10;;;1.85;;
15110;SDS011;7656;51.954;7.998;2023-06-14T11:53:13;1.67;;;1.58;;
15110;SDS011;7656;51.954;7.998;2023-06-14T11:57:37;1.70;;;1.60;;
15110;SDS011;7656;51.954;7.998;2023-06-14T12:01:59;5.47;;;1.85;;
15110;SDS011;7656;51.954;7.998;2023-06-14T12:06:27;4.88;;;1.92;;
15110;SDS011;7656;51.954;7.998;2023-06-14T12:10:52;1.70;;;1.60;;
15110;SDS011;7656;51.954;7.998;2023-06-14T12:15:13;1.85;;;1.75;;
15110;SDS011;7656;51.954;7.998;2023-06-14T12:19:46;11.73;;;2.25;;
15110;SDS011;7656;51.954;7.998;2023-06-14T12:24:11;1.73;;;1.63;;
15110;SDS011;7656;51.954;7.998;2023-06-14T12:28:32;2.42;;;2.15;;
15110;SDS011;7656;51.954;7.998;2023-06-14T12:32:54;3.50;;;1.80;;
15110;SDS011;7656;51.954;7.998;2023-06-14T12:37:15;9.60;;;2.13;;
15110;SDS011;7656;51.954;7.998;2023-06-14T12:41:36;8.90;;;3.25;;
15110;SDS011;7656;51.954;7.998;2023-06-14T12:45:57;6.40;;;2.08;;
15110;SDS011;7656;51.954;7.998;2023-06-14T12:50:18;1.95;;;1.80;;
15110;SDS011;7656;51.954;7.998;2023-06-14T12:54:39;4.13;;;1.98;;
15110;SDS011;7656;51.954;7.998;2023-06-14T12:59:01;3.63;;;1.70;;
15110;SDS011;7656;51.954;7.998;2023-06-14T13:03:22;3.90;;;1.80;;
15110;SDS011;7656;51.954;7.998;2023-06-14T13:07:43;2.03;;;1.80;;
15110;SDS011;7656;51.954;7.998;2023-06-14T13:12:05;1.80;;;1.70;;
15110;SDS011;7656;51.954;7.998;2023-06-14T13:16:27;1.50;;;1.40;;
15110;SDS011;7656;51.954;7.998;2023-06-14T13:20:48;4.35;;;1.63;;
15110;SDS011;7656;51.954;7.998;2023-06-14T13:25:09;3.00;;;1.90;;
15110;SDS011;7656;51.954;7.998;2023-06-14T13:29:31;2.03;;;1.92;;
15110;SDS011;7656;51.954;7.998;2023-06-14T13:33:53;2.72;;;2.05;;
15110;SDS011;7656;51.954;7.998;2023-06-14T13:38:14;2.00;;;1.80;;
15110;SDS011;7656;51.954;7.998;2023-06-14T13:42:35;4.97;;;1.88;;
15110;SDS011;7656;51.954;7.998;2023-06-14T13:46:57;4.78;;;1.80;;
15110;SDS011;7656;51.954;7.998;2023-06-14T13:51:18;1.65;;;1.55;;
15110;SDS011;7656;51.954;7.998;2023-06-14T13:55:39;4.78;;;1.85;;
15110;SDS011;7656;51.954;7.998;2023-06-14T14:00:00;3.50;;;1.70;;
15110;SDS011;7656;51.954;7.998;2023-06-14T14:04:21;12.35;;;2.85;;
15110;SDS011;7656;51.954;7.998;2023-06-14T14:08:42;6.03;;;2.28;;
15110;SDS011;7656;51.954;7.998;2023-06-14T14:13:04;5.10;;;2.05;;
15110;SDS011;7656;51.954;7.998;2023-06-14T14:17:25;2.25;;;1.85;;
15110;SDS011;7656;51.954;7.998;2023-06-14T14:21:47;2.72;;;2.03;;
15110;SDS011;7656;51.954;7.998;2023-06-14T14:26:08;4.88;;;1.73;;
15110;SDS011;7656;51.954;7.998;2023-06-14T14:30:29;2.00;;;1.83;;
15110;SDS011;7656;51.954;7.998;2023-06-14T14:34:50;12.57;;;2.90;;
15110;SDS011;7656;51.954;7.998;2023-06-14T14:39:11;3.15;;;2.15;;
15110;SDS011;7656;51.954;7.998;2023-06-14T14:43:32;4.30;;;1.60;;
15110;SDS011;7656;51.954;7.998;2023-06-14T14:47:53;1.90;;;1.70;;
15110;SDS011;7656;51.954;7.998;2023-06-14T14:52:14;6.78;;;1.80;;
15110;SDS011;7656;51.954;7.998;2023-06-14T14:56:35;4.88;;;1.95;;
15110;SDS011;7656;51.954;7.998;2023-06-14T15:00:58;2.45;;;1.80;;
15110;SDS011;7656;51.954;7.998;2023-06-14T15:05:19;18.55;;;3.05;;
15110;SDS011;7656;51.954;7.998;2023-06-14T15:09:40;1.92;;;1.65;;
15110;SDS011;7656;51.954;7.998;2023-06-14T15:14:01;2.60;;;1.73;;
15110;SDS011;7656;51.954;7.998;2023-06-14T15:18:23;1.70;;;1.60;;
15110;SDS011;7656;51.954;7.998;2023-06-14T15:22:44;1.90;;;1.50;;
15110;SDS011;7656;51.954;7.998;2023-06-14T15:27:05;9.95;;;2.08;;
15110;SDS011;7656;51.954;7.998;2023-06-14T15:31:26;1.85;;;1.75;;
15110;SDS011;7656;51.954;7.998;2023-06-14T15:35:49;1.55;;;1.40;;
15110;SDS011;7656;51.954;7.998;2023-06-14T15:40:10;3.20;;;2.05;;
15110;SDS011;7656;51.954;7.998;2023-06-14T15:44:32;2.35;;;2.10;;
15110;SDS011;7656;51.954;7.998;2023-06-14T15:48:53;3.63;;;1.70;;
15110;SDS011;7656;51.954;7.998;2023-06-14T15:53:14;7.53;;;2.08;;
15110;SDS011;7656;51.954;7.998;2023-06-14T15:57:36;4.78;;;1.92;;
15110;SDS011;7656;51.954;7.998;2023-06-14T16:01:57;3.63;;;1.80;;
15110;SDS011;7656;51.954;7.998;2023-06-14T16:06:18;2.35;;;1.90;;
15110;SDS011;7656;51.954;7.998;2023-06-14T16:10:39;4.05;;;2.30;;
15110;SDS011;7656;51.954;7.998;2023-06-14T16:15:01;16.65;;;3.13;;
15110;SDS011;7656;51.954;7.998;2023-06-14T16:19:22;5.45;;;2.13;;
15110;SDS011;7656;51.954;7.998;2023-06-14T16:23:44;2.10;;;1.88;;
15110;SDS011;7656;51.954;7.998;2023-06-14T16:28:05;7.05;;;2.10;;
15110;SDS011;7656;51.954;7.998;2023-06-14T16:32:26;1.92;;;1.83;;
15110;SDS011;7656;51.954;7.998;2023-06-14T16:36:48;5.25;;;2.30;;
15110;SDS011;7656;51.954;7.998;2023-06-14T16:41:10;2.58;;;1.80;;
15110;SDS011;7656;51.954;7.998;2023-06-14T16:45:31;2.95;;;1.80;;
15110;SDS011;7656;51.954;7.998;2023-06-14T16:49:52;2.08;;;1.98;;
15110;SDS011;7656;51.954;7.998;2023-06-14T16:54:13;4.93;;;2.22;;
15110;SDS011;7656;51.954;7.998;2023-06-14T16:58:34;10.90;;;3.00;;
15110;SDS011;7656;51.954;7.998;2023-06-14T17:02:55;4.43;;;2.10;;
15110;SDS011;7656;51.954;7.998;2023-06-14T17:07:16;4.60;;;2.75;;
15110;SDS011;7656;51.954;7.998;2023-06-14T17:11:37;8.30;;;2.05;;
15110;SDS011;7656;51.954;7.998;2023-06-14T17:15:59;12.35;;;2.90;;
15110;SDS011;7656;51.954;7.998;2023-06-14T17:20:25;2.10;;;1.90;;
15110;SDS011;7656;51.954;7.998;2023-06-14T17:24:47;16.58;;;3.53;;
15110;SDS011;7656;51.954;7.998;2023-06-14T17:29:08;4.28;;;2.30;;
15110;SDS011;7656;51.954;7.998;2023-06-14T17:33:29;5.82;;;3.25;;
15110;SDS011;7656;51.954;7.998;2023-06-14T17:37:50;5.28;;;3.17;;
15110;SDS011;7656;51.954;7.998;2023-06-14T17:42:11;3.03;;;2.40;;
15110;SDS011;7656;51.954;7.998;2023-06-14T17:46:33;6.75;;;2.47;;
15110;SDS011;7656;51.954;7.998;2023-06-14T17:50:54;5.88;;;2.67;;
15110;SDS011;7656;51.954;7.998;2023-06-14T17:55:15;3.80;;;2.63;;
15110;SDS011;7656;51.954;7.998;2023-06-14T17:59:36;2.30;;;2.10;;
15110;SDS011;7656;51.954;7.998;2023-06-14T18:03:57;4.00;;;2.35;;
15110;SDS011;7656;51.954;7.998;2023-06-14T18:08:18;7.35;;;2.63;;
15110;SDS011;7656;51.954;7.998;2023-06-14T18:12:39;2.78;;;2.40;;
15110;SDS011;7656;51.954;7.998;2023-06-14T18:17:01;4.22;;;3.05;;
15110;SDS011;7656;51.954;7.998;2023-06-14T18:21:22;3.13;;;2.83;;
15110;SDS011;7656;51.954;7.998;2023-06-14T18:25:43;16.90;;;4.50;;
15110;SDS011;7656;51.954;7.998;2023-06-14T18:30:04;2.75;;;2.47;;
15110;SDS011;7656;51.954;7.998;2023-06-14T18:34:26;10.07;;;3.17;;
15110;SDS011;7656;51.954;7.998;2023-06-14T18:38:47;6.40;;;2.90;;
15110;SDS011;7656;51.954;7.998;2023-06-14T18:43:08;9.02;;;3.58;;
15110;SDS011;7656;51.954;7.998;2023-06-14T18:47:30;14.57;;;3.58;;
15110;SDS011;7656;51.954;7.998;2023-06-14T18:51:51;5.70;;;2.58;;
15110;SDS011;7656;51.954;7.998;2023-06-14T18:56:12;5.40;;;2.80;;
15110;SDS011;7656;51.954;7.998;2023-06-14T19:00:33;4.70;;;2.75;;
15110;SDS011;7656;51.954;7.998;2023-06-14T19:04:55;3.03;;;2.83;;
15110;SDS011;7656;51.954;7.998;2023-06-14T19:09:17;5.93;;;3.17;;
15110;SDS011;7656;51.954;7.998;2023-06-14T19:13:43;4.60;;;2.80;;
15110;SDS011;7656;51.954;7.998;2023-06-14T19:18:04;5.60;;;2.70;;
15110;SDS011;7656;51.954;7.998;2023-06-14T19:22:26;3.20;;;2.88;;
15110;SDS011;7656;51.954;7.998;2023-06-14T19:26:47;4.85;;;3.55;;
15110;SDS011;7656;51.954;7.998;2023-06-14T19:31:08;6.65;;;3.28;;
15110;SDS011;7656;51.954;7.998;2023-06-14T19:35:31;6.38;;;3.78;;
15110;SDS011;7656;51.954;7.998;2023-06-14T19:39:52;5.43;;;3.40;;
15110;SDS011;7656;51.954;7.998;2023-06-14T19:44:13;9.55;;;4.30;;
15110;SDS011;7656;51.954;7.998;2023-06-14T19:48:34;7.30;;;3.75;;
15110;SDS011;7656;51.954;7.998;2023-06-14T19:52:56;8.13;;;3.55;;
15110;SDS011;7656;51.954;7.998;2023-06-14T19:57:17;5.22;;;3.83;;
15110;SDS011;7656;51.954;7.998;2023-06-14T20:01:38;5.32;;;3.75;;
15110;SDS011;7656;51.954;7.998;2023-06-14T20:05:59;3.97;;;3.03;;
15110;SDS011;7656;51.954;7.998;2023-06-14T20:10:20;4.45;;;3.28;;
15110;SDS011;7656;51.954;7.998;2023-06-14T20:14:41;5.78;;;3.65;;
15110;SDS011;7656;51.954;7.998;2023-06-14T20:19:02;3.15;;;2.95;;
15110;SDS011;7656;51.954;7.998;2023-06-14T20:23:23;3.70;;;3.40;;
15110;SDS011;7656;51.954;7.998;2023-06-14T20:27:44;6.90;;;3.80;;
15110;SDS011;7656;51.954;7.998;2023-06-14T20:32:05;6.53;;;3.42;;
15110;SDS011;7656;51.954;7.998;2023-06-14T20:36:27;10.00;;;3.65;;
15110;SDS011;7656;51.954;7.998;2023-06-14T20:40:50;7.53;;;3.92;;
15110;SDS011;7656;51.954;7.998;2023-06-14T20:45:13;4.63;;;3.38;;
15110;SDS011;7656;51.954;7.998;2023-06-14T20:49:35;4.28;;;3.28;;
15110;SDS011;7656;51.954;7.998;2023-06-14T20:53:56;9.18;;;3.90;;
15110;SDS011;7656;51.954;7.998;2023-06-14T20:58:17;11.23;;;3.85;;
15110;SDS011;7656;51.954;7.998;2023-06-14T21:02:39;8.35;;;3.67;;
15110;SDS011;7656;51.954;7.998;2023-06-14T21:07:01;5.30;;;3.20;;
15110;SDS011;7656;51.954;7.998;2023-06-14T21:11:22;8.53;;;3.20;;
15110;SDS011;7656;51.954;7.998;2023-06-14T21:15:43;3.67;;;3.33;;
15110;SDS011;7656;51.954;7.998;2023-06-14T21:20:05;3.70;;;3.17;;
15110;SDS011;7656;51.954;7.998;2023-06-14T21:24:27;3.27;;;2.97;;
15110;SDS011;7656;51.954;7.998;2023-06-14T21:28:48;7.70;;;3.57;;
15110;SDS011;7656;51.954;7.998;2023-06-14T21:33:09;6.13;;;3.43;;
15110;SDS011;7656;51.954;7.998;2023-06-14T21:37:30;3.93;;;3.53;;
15110;SDS011;7656;51.954;7.998;2023-06-14T21:41:51;4.43;;;3.63;;
15110;SDS011;7656;51.954;7.998;2023-06-14T21:46:13;3.70;;;3.40;;
15110;SDS011;7656;51.954;7.998;2023-06-14T21:50:34;5.03;;;3.47;;
15110;SDS011;7656;51.954;7.998;2023-06-14T21:54:55;5.13;;;3.23;;
15110;SDS011;7656;51.954;7.998;2023-06-14T21:59:17;4.80;;;3.20;;
15110;SDS011;7656;51.954;7.998;2023-06-14T22:03:38;3.60;;;3.30;;
15110;SDS011;7656;51.954;7.998;2023-06-14T22:07:59;6.37;;;3.30;;
15110;SDS011;7656;51.954;7.998;2023-06-14T22:12:20;4.37;;;3.13;;
15110;SDS011;7656;51.954;7.998;2023-06-14T22:16:41;4.83;;;3.23;;
15110;SDS011;7656;51.954;7.998;2023-06-14T22:21:02;4.13;;;3.30;;
15110;SDS011;7656;51.954;7.998;2023-06-14T22:25:23;4.60;;;3.50;;
15110;SDS011;7656;51.954;7.998;2023-06-14T22:29:44;3.63;;;3.20;;
15110;SDS011;7656;51.954;7.998;2023-06-14T22:34:07;5.07;;;3.20;;
15110;SDS011;7656;51.954;7.998;2023-06-14T22:38:28;3.00;;;2.70;;
15110;SDS011;7656;51.954;7.998;2023-06-14T22:42:50;4.37;;;3.80;;
15110;SDS011;7656;51.954;7.998;2023-06-14T22:47:13;4.80;;;3.90;;
15110;SDS011;7656;51.954;7.998;2023-06-14T22:51:40;3.97;;;3.57;;
15110;SDS011;7656;51.954;7.998;2023-06-14T22:56:03;4.93;;;3.23;;
15110;SDS011;7656;51.954;7.998;2023-06-14T23:00:24;4.27;;;3.37;;
15110;SDS011;7656;51.954;7.998;2023-06-14T23:04:45;9.20;;;4.77;;
15110;SDS011;7656;51.954;7.998;2023-06-14T23:09:07;4.93;;;3.60;;
15110;SDS011;7656;51.954;7.998;2023-06-14T23:13:29;3.43;;;3.13;;
15110;SDS011;7656;51.954;7.998;2023-06-14T23:17:50;5.43;;;3.33;;
15110;SDS011;7656;51.954;7.998;2023-06-14T23:22:12;4.83;;;3.83;;
15110;SDS011;7656;51.954;7.998;2023-06-14T23:26:34;7.20;;;3.77;;
15110;SDS011;7656;51.954;7.998;2023-06-14T23:30:56;5.57;;;3.60;;
15110;SDS011;7656;51.954;7.998;2023-06-14T23:35:17;6.97;;;3.70;;
15110;SDS011;7656;51.954;7.998;2023-06-14T23:39:38;4.20;;;3.80;;
15110;SDS011;7656;51.954;7.998;2023-06-14T23:44:08;7.03;;;4.10;;
15110;SDS011;7656;51.954;7.998;2023-06-14T23:48:30;4.77;;;3.70;;
15110;SDS011;7656;51.954;7.998;2023-06-14T23:52:52;5.40;;;4.40;;
15110;SDS011;7656;51.954;7.998;2023-06-14T23:57:19;4.87;;;4.00;;
